Time;durP1;ratioP1;P1;durP2;ratioP2;P2;SDS_P1;SDS_P2;PMS_P1;PMS_P2;Temp;Humidity;BMP_temperature;BMP_pressure;BME280_temperature;BME280_humidity;BME280_pressure;Samples;Min_cycle;Max_cycle;Signal;HPM_P1;HPM_P2
2022/07/05 00:00:45;;;;;;;18.40;11.75;;;;;;;19.08;60.07;99829.63;6154366;23;20024;-77
2022/07/05 00:03:11;;;;;;;15.98;11.95;;;;;;;19.01;60.32;99829.97;6154084;23;20465;-76
2022/07/05 00:05:38;;;;;;;14.35;10.88;;;;;;;19.02;60.65;99832.53;6128613;23;20040;-75
2022/07/05 00:08:05;;;;;;;16.15;11.68;;;;;;;19.03;60.45;99841.31;6153562;23;20459;-78
2022/07/05 00:10:32;;;;;;;17.35;10.95;;;;;;;18.95;60.35;99837.22;6127697;23;20463;-76
2022/07/05 00:12:58;;;;;;;18.27;13.73;;;;;;;18.89;60.38;99836.59;6127657;23;20017;-77
2022/07/05 00:15:25;;;;;;;16.77;12.15;;;;;;;18.81;60.36;99829.00;6152270;23;20022;-78
2022/07/05 00:17:50;;;;;;;14.95;11.60;;;;;;;18.84;60.57;99838.56;6153126;23;20017;-75
2022/07/05 00:20:17;;;;;;;17.33;11.48;;;;;;;18.80;60.60;99851.03;6129357;23;20017;-75
2022/07/05 00:22:43;;;;;;;13.25;11.65;;;;;;;18.73;60.81;99850.44;6158183;23;20091;-75
2022/07/05 00:25:09;;;;;;;16.95;11.65;;;;;;;18.70;61.04;99854.94;6153313;23;20100;-77
2022/07/05 00:27:37;;;;;;;14.95;11.13;;;;;;;18.64;61.28;99859.59;6154667;23;20332;-75
2022/07/05 00:30:06;;;;;;;13.82;11.60;;;;;;;18.60;61.46;99857.13;6127601;23;20017;-77
2022/07/05 00:32:32;;;;;;;16.85;11.90;;;;;;;18.58;61.70;99862.47;6152508;23;20832;-76
2022/07/05 00:34:58;;;;;;;13.10;11.63;;;;;;;18.57;61.94;99863.38;6127878;23;20533;-77
2022/07/05 00:37:24;;;;;;;17.23;11.52;;;;;;;18.49;62.13;99858.44;6154650;23;20052;-77
2022/07/05 00:39:50;;;;;;;20.27;11.38;;;;;;;18.47;62.42;99851.50;6127413;23;20025;-77
2022/07/05 00:42:16;;;;;;;17.65;11.90;;;;;;;18.46;62.58;99857.69;6137287;23;20057;-75
2022/07/05 00:44:42;;;;;;;16.85;13.65;;;;;;;18.43;62.55;99849.91;6128154;23;20018;-77
2022/07/05 00:47:11;;;;;;;19.30;11.40;;;;;;;18.47;62.58;99859.38;6124639;23;20474;-77
2022/07/05 00:49:38;;;;;;;17.50;12.02;;;;;;;18.46;62.64;99866.44;6098464;23;20028;-75
2022/07/05 00:52:05;;;;;;;16.63;11.25;;;;;;;18.45;62.65;99872.63;6122926;23;20021;-76
2022/07/05 00:54:34;;;;;;;14.57;10.85;;;;;;;18.44;62.74;99872.69;6122803;23;20041;-76
2022/07/05 00:57:01;;;;;;;17.20;11.40;;;;;;;18.39;62.76;99864.97;6122730;23;20072;-77
2022/07/05 00:59:28;;;;;;;14.57;11.82;;;;;;;18.34;62.72;99853.75;6122305;23;20018;-77
2022/07/05 01:01:55;;;;;;;13.82;10.88;;;;;;;18.32;62.81;99863.50;6124330;23;20017;-77
2022/07/05 01:04:21;;;;;;;16.13;12.98;;;;;;;18.27;62.88;99868.13;6123895;23;20038;-75
2022/07/05 01:06:49;;;;;;;26.27;15.07;;;;;;;18.27;63.28;99874.22;6147314;23;20022;-76
2022/07/05 01:09:17;;;;;;;24.80;12.48;;;;;;;18.25;63.91;99870.78;6124160;23;20022;-77
2022/07/05 01:11:48;;;;;;;17.95;12.93;;;;;;;18.33;63.97;99871.34;6123659;23;20028;-77
2022/07/05 01:14:23;;;;;;;13.05;11.70;;;;;;;18.39;64.19;99880.78;6123875;23;20017;-76
2022/07/05 01:16:50;;;;;;;13.98;12.20;;;;;;;18.40;64.10;99871.13;6123118;23;20022;-78
2022/07/05 01:19:17;;;;;;;20.20;12.52;;;;;;;18.36;64.31;99871.22;6098375;23;20021;-76
2022/07/05 01:21:48;;;;;;;18.65;11.90;;;;;;;18.40;64.60;99869.31;6122302;23;20018;-76
2022/07/05 01:24:16;;;;;;;14.65;11.43;;;;;;;18.42;64.68;99874.56;6122920;23;20048;-76
2022/07/05 01:26:44;;;;;;;17.95;11.60;;;;;;;18.42;64.84;99874.56;6099800;23;20080;-78
2022/07/05 01:29:11;;;;;;;15.00;11.35;;;;;;;18.45;64.69;99883.19;6123900;23;20022;-76
2022/07/05 01:31:38;;;;;;;19.70;11.13;;;;;;;18.43;64.59;99881.50;6102532;23;20025;-78
2022/07/05 01:34:06;;;;;;;17.58;10.85;;;;;;;18.48;64.49;99880.41;6112970;23;20076;-75
2022/07/05 01:36:33;;;;;;;19.98;11.18;;;;;;;18.50;64.51;99875.06;6134591;23;20370;-76
2022/07/05 01:39:05;;;;;;;18.83;11.20;;;;;;;18.54;64.49;99867.94;6131907;23;20109;-74
2022/07/05 01:41:32;;;;;;;19.50;11.70;;;;;;;18.59;64.35;99869.44;6108691;23;20025;-78
2022/07/05 01:43:59;;;;;;;17.35;12.02;;;;;;;18.62;64.69;99871.09;6139263;23;20029;-77
2022/07/05 01:46:29;;;;;;;23.50;13.85;;;;;;;18.63;64.40;99872.81;6137492;23;20018;-77
2022/07/05 01:48:58;;;;;;;18.98;11.60;;;;;;;18.66;64.69;99860.34;6114242;23;20048;-75
2022/07/05 01:51:29;;;;;;;22.08;13.02;;;;;;;18.73;64.58;99868.00;6115919;23;20022;-77
2022/07/05 01:53:55;;;;;;;;;;;;;;;18.73;64.59;99873.28;6134514;23;20047;-77
2022/07/05 01:56:22;;;;;;;22.50;13.20;;;;;;;18.74;64.14;99867.09;6148593;23;20331;-77
2022/07/05 01:58:48;;;;;;;22.52;14.98;;;;;;;18.74;64.25;99862.69;6147947;23;20041;-77
2022/07/05 02:01:14;;;;;;;20.80;13.35;;;;;;;18.78;64.47;99866.88;6124543;23;20080;-77
2022/07/05 02:03:41;;;;;;;14.98;11.85;;;;;;;18.77;64.68;99854.63;6125973;23;20171;-76
2022/07/05 02:06:10;;;;;;;16.63;11.55;;;;;;;18.91;64.33;99864.59;6123143;23;20045;-77
2022/07/05 02:08:36;;;;;;;20.83;15.00;;;;;;;18.94;64.11;99863.63;6123525;23;20026;-75
2022/07/05 02:11:07;;;;;;;25.77;17.03;;;;;;;18.86;63.84;99853.41;6148795;23;20024;-78
2022/07/05 02:13:33;;;;;;;31.90;18.40;;;;;;;18.92;63.81;99853.13;6123366;23;20017;-76
2022/07/05 02:15:59;;;;;;;23.75;16.33;;;;;;;18.94;64.41;99856.56;6148074;23;20042;-77
2022/07/05 02:18:25;;;;;;;22.35;14.90;;;;;;;18.93;64.75;99838.19;6122729;23;20513;-77
2022/07/05 02:20:53;;;;;;;23.27;13.57;;;;;;;19.09;64.70;99854.19;6122358;23;20028;-75
2022/07/05 02:23:19;;;;;;;22.95;14.25;;;;;;;19.22;64.70;99858.03;6121831;23;20105;-77
2022/07/05 02:25:46;;;;;;;20.10;12.98;;;;;;;19.33;64.45;99854.94;6147550;23;20035;-77
2022/07/05 02:28:15;;;;;;;24.67;14.32;;;;;;;19.36;64.43;99851.28;6122244;23;20022;-78
2022/07/05 02:30:44;;;;;;;25.20;14.73;;;;;;;19.44;64.18;99851.81;6098245;23;20125;-76
2022/07/05 02:33:10;;;;;;;19.00;12.38;;;;;;;19.61;64.57;99866.00;6121353;23;20112;-77
2022/07/05 02:35:36;;;;;;;24.70;14.02;;;;;;;19.65;63.95;99855.22;6122236;23;20022;-77
2022/07/05 02:38:03;;;;;;;25.63;13.52;;;;;;;19.76;64.08;99864.47;6147314;23;20026;-77
2022/07/05 02:40:29;;;;;;;27.50;15.73;;;;;;;19.72;63.64;99855.84;6081152;23;20102;-77
2022/07/05 02:42:57;;;;;;;17.05;12.65;;;;;;;19.82;63.78;99859.75;6098144;23;20029;-76
2022/07/05 02:45:24;;;;;;;16.67;13.35;;;;;;;19.94;63.55;99863.63;6115775;23;20017;-76
2022/07/05 02:47:57;;;;;;;28.63;13.90;;;;;;;20.08;63.56;99875.34;6123221;23;20037;-76
2022/07/05 02:50:25;;;;;;;25.85;14.52;;;;;;;20.14;63.28;99862.69;6109208;23;20081;-75
2022/07/05 02:52:52;;;;;;;23.00;14.05;;;;;;;20.24;63.11;99849.91;6099483;23;20021;-78
2022/07/05 02:55:18;;;;;;;22.92;14.85;;;;;;;20.43;62.84;99863.06;6098074;23;20408;-78
2022/07/05 02:57:45;;;;;;;24.00;14.27;;;;;;;20.61;62.35;99869.22;6073808;23;20400;-76
2022/07/05 03:00:14;;;;;;;19.58;13.88;;;;;;;20.71;62.11;99866.16;6098069;23;20018;-76
2022/07/05 03:02:44;;;;;;;22.75;14.00;;;;;;;20.83;62.01;99867.34;6073422;23;20065;-76
2022/07/05 03:05:11;;;;;;;37.85;14.55;;;;;;;20.91;61.55;99862.50;6097684;23;20021;-76
2022/07/05 03:07:40;;;;;;;24.02;15.10;;;;;;;21.05;60.97;99860.03;6097966;23;20073;-75
2022/07/05 03:10:06;;;;;;;20.63;13.90;;;;;;;21.20;61.32;99868.94;6098053;23;20080;-75
2022/07/05 03:12:33;;;;;;;25.55;15.55;;;;;;;21.36;61.08;99866.34;6098652;23;20022;-78
2022/07/05 03:15:01;;;;;;;27.58;16.55;;;;;;;21.51;60.54;99872.63;6097833;23;20021;-75
2022/07/05 03:17:29;;;;;;;21.45;14.25;;;;;;;21.62;60.14;99866.78;6097272;23;20064;-77
2022/07/05 03:19:55;;;;;;;19.70;13.88;;;;;;;21.79;59.81;99870.28;6121888;23;20096;-78
2022/07/05 03:22:25;;;;;;;15.55;11.95;;;;;;;21.83;59.35;99861.25;6097802;23;20456;-76
2022/07/05 03:24:50;;;;;;;20.52;12.52;;;;;;;21.95;58.94;99867.66;6096494;23;20049;-76
2022/07/05 03:27:17;;;;;;;19.83;12.60;;;;;;;22.12;58.21;99877.34;6073015;23;20359;-76
2022/07/05 03:29:46;;;;;;;20.90;11.75;;;;;;;22.31;57.64;99876.28;6072740;23;20436;-76
2022/07/05 03:32:13;;;;;;;21.05;12.75;;;;;;;22.50;57.12;99876.97;6098092;23;20077;-75
2022/07/05 03:34:40;;;;;;;17.58;12.13;;;;;;;22.61;57.01;99870.22;6073712;23;20040;-77
2022/07/05 03:37:08;;;;;;;16.40;11.20;;;;;;;22.76;56.25;99876.41;6074825;23;20026;-78
2022/07/05 03:39:34;;;;;;;19.48;11.77;;;;;;;22.89;55.63;99881.84;6136075;23;20022;-77
2022/07/05 03:42:01;;;;;;;23.67;12.60;;;;;;;22.98;55.39;99878.66;6097189;23;20029;-76
2022/07/05 03:44:32;;;;;;;16.67;11.27;;;;;;;23.13;55.14;99885.69;6121921;23;20072;-77
2022/07/05 03:47:01;;;;;;;11.35;9.23;;;;;;;23.29;54.33;99890.09;6122431;23;20017;-77
2022/07/05 03:49:28;;;;;;;12.55;10.57;;;;;;;23.27;54.21;99868.13;6122368;23;20404;-76
2022/07/05 03:51:54;;;;;;;13.90;9.30;;;;;;;23.31;53.50;99875.78;6129962;23;20048;-78
2022/07/05 03:54:20;;;;;;;17.75;10.13;;;;;;;23.31;53.64;99867.84;6128220;23;20013;-77
2022/07/05 03:56:46;;;;;;;11.95;9.18;;;;;;;23.51;53.35;99875.50;6149392;23;20040;-77
2022/07/05 03:59:14;;;;;;;14.63;9.48;;;;;;;23.69;52.78;99874.38;6097406;23;20025;-76
2022/07/05 04:01:41;;;;;;;17.35;10.23;;;;;;;23.86;52.40;99880.44;6123342;23;20025;-76
2022/07/05 04:04:08;;;;;;;13.88;9.55;;;;;;;23.96;52.12;99892.16;6146115;23;20096;-75
2022/07/05 04:06:34;;;;;;;13.50;9.45;;;;;;;24.08;51.66;99884.41;6121515;23;20093;-78
2022/07/05 04:09:02;;;;;;;11.80;8.52;;;;;;;24.16;51.67;99882.97;6123240;23;20014;-77
2022/07/05 04:11:28;;;;;;;14.55;9.10;;;;;;;24.34;50.80;99885.38;6146448;23;20018;-77
2022/07/05 04:13:54;;;;;;;9.75;8.15;;;;;;;24.55;50.71;99887.56;6145892;23;20025;-76
2022/07/05 04:16:22;;;;;;;10.30;8.90;;;;;;;24.69;50.39;99879.53;6146141;23;20025;-77
2022/07/05 04:18:50;;;;;;;10.73;8.32;;;;;;;24.86;50.09;99891.72;6121693;23;20017;-77
2022/07/05 04:21:16;;;;;;;15.15;9.07;;;;;;;25.01;49.70;99889.84;6123084;23;20035;-77
2022/07/05 04:23:43;;;;;;;10.15;8.73;;;;;;;25.11;49.35;99890.06;6123244;23;20476;-76
2022/07/05 04:26:10;;;;;;;10.68;8.10;;;;;;;25.33;48.93;99888.56;6123235;23;20022;-77
2022/07/05 04:28:40;;;;;;;11.73;8.75;;;;;;;25.56;49.07;99895.00;6122701;23;20479;-75
2022/07/05 04:31:09;;;;;;;11.23;8.48;;;;;;;25.72;48.57;99900.09;6121908;23;20451;-77
2022/07/05 04:33:40;;;;;;;12.07;8.38;;;;;;;25.84;47.60;99885.03;6147342;23;20033;-77
2022/07/05 04:36:06;;;;;;;10.18;8.02;;;;;;;25.89;47.78;99890.91;6122747;23;20160;-80
2022/07/05 04:38:34;;;;;;;9.82;8.25;;;;;;;25.96;47.49;99888.63;6123002;23;20028;-76
2022/07/05 04:41:02;;;;;;;10.85;8.63;;;;;;;26.11;47.40;99886.69;6123139;23;20018;-77
2022/07/05 04:43:29;;;;;;;8.27;7.47;;;;;;;26.26;46.98;99895.41;6098798;23;20112;-76
2022/07/05 04:45:56;;;;;;;8.18;7.38;;;;;;;26.44;46.13;99899.38;6126264;23;20420;-76
2022/07/05 04:48:23;;;;;;;8.93;7.78;;;;;;;26.54;45.54;99893.38;6124152;23;20018;-76
2022/07/05 04:50:49;;;;;;;8.82;7.07;;;;;;;26.59;45.51;99892.06;6123557;23;20021;-77
2022/07/05 04:53:15;;;;;;;8.88;7.97;;;;;;;26.70;44.73;99895.75;6099201;23;20024;-76
2022/07/05 04:55:42;;;;;;;10.40;7.38;;;;;;;26.81;44.59;99884.28;6099248;23;20097;-77
2022/07/05 04:58:08;;;;;;;8.73;7.82;;;;;;;26.97;43.64;99879.47;6097601;23;20104;-76
2022/07/05 05:00:34;;;;;;;8.52;7.35;;;;;;;27.19;43.30;99883.16;6125117;23;20475;-77
2022/07/05 05:03:00;;;;;;;11.65;7.72;;;;;;;27.28;43.02;99869.06;6123518;23;20018;-74
2022/07/05 05:05:26;;;;;;;7.85;7.05;;;;;;;27.44;42.52;99884.75;6125081;23;20022;-75
2022/07/05 05:07:52;;;;;;;7.85;7.13;;;;;;;27.47;42.44;99875.72;6124362;23;20019;-76
2022/07/05 05:10:18;;;;;;;8.52;7.68;;;;;;;27.61;41.94;99879.94;6123355;23;20018;-76
2022/07/05 05:12:44;;;;;;;10.23;7.75;;;;;;;27.68;42.06;99874.97;6147644;23;20037;-77
2022/07/05 05:15:10;;;;;;;8.40;7.03;;;;;;;27.95;41.34;99872.72;6122446;23;20402;-76
2022/07/05 05:17:42;;;;;;;11.30;8.05;;;;;;;28.11;41.23;99866.19;6124149;23;20026;-76
2022/07/05 05:20:14;;;;;;;7.93;7.07;;;;;;;28.26;40.89;99883.66;6123408;23;20021;-77
2022/07/05 05:22:41;;;;;;;7.55;6.85;;;;;;;28.36;40.76;99880.19;6149172;23;20022;-78
2022/07/05 05:25:08;;;;;;;7.20;6.60;;;;;;;28.67;40.13;99880.31;6123847;23;20092;-77
2022/07/05 05:27:34;;;;;;;8.70;7.43;;;;;;;28.94;40.05;99877.16;6126794;23;20096;-79
2022/07/05 05:30:01;;;;;;;8.68;6.57;;;;;;;29.00;38.94;99883.84;6132241;23;20022;-77
2022/07/05 05:32:29;;;;;;;7.13;6.43;;;;;;;29.07;39.17;99878.81;6122165;23;20070;-78
2022/07/05 05:34:58;;;;;;;7.68;6.72;;;;;;;29.22;38.74;99873.97;6135849;23;20021;-76
2022/07/05 05:37:24;;;;;;;8.50;6.95;;;;;;;29.39;38.57;99880.53;6133370;23;20060;-75
2022/07/05 05:39:50;;;;;;;8.27;7.13;;;;;;;29.44;37.95;99860.44;6129899;23;20033;-76
2022/07/05 05:42:17;;;;;;;8.80;7.88;;;;;;;29.69;37.91;99876.16;6127072;23;20041;-76
2022/07/05 05:44:46;;;;;;;7.97;7.18;;;;;;;29.78;37.41;99867.31;6101428;23;20085;-76
2022/07/05 05:47:12;;;;;;;7.80;7.00;;;;;;;30.01;37.34;99867.13;6075305;23;20045;-75
2022/07/05 05:49:38;;;;;;;7.82;6.63;;;;;;;30.22;36.82;99863.50;6100208;23;20379;-77
2022/07/05 05:52:07;;;;;;;7.97;7.05;;;;;;;30.59;36.33;99870.88;6099252;23;20364;-75
2022/07/05 05:54:34;;;;;;;7.00;6.40;;;;;;;31.21;35.65;99867.81;6125087;23;20040;-76
2022/07/05 05:57:00;;;;;;;8.10;6.93;;;;;;;32.42;34.74;99865.09;6123734;23;20033;-76
2022/07/05 05:59:26;;;;;;;7.22;6.47;;;;;;;34.57;32.53;99861.78;6124964;23;20022;-75
2022/07/05 06:01:56;;;;;;;7.35;6.65;;;;;;;36.56;30.08;99860.06;6098326;23;20423;-78
2022/07/05 06:04:29;;;;;;;7.30;6.65;;;;;;;37.87;27.70;99855.25;6053047;23;20026;-76
2022/07/05 06:07:05;;;;;;;7.47;6.70;;;;;;;38.71;26.20;99823.94;6124902;23;20090;-76
2022/07/05 06:09:36;;;;;;;7.15;6.45;;;;;;;39.97;25.02;99811.19;6123420;23;20014;-76
2022/07/05 06:12:02;;;;;;;9.27;7.32;;;;;;;40.86;24.00;99845.63;6126761;23;20189;-78
2022/07/05 06:14:42;;;;;;;7.13;6.43;;;;;;;41.62;23.09;99844.16;6136869;23;20017;-75
2022/07/05 06:17:10;;;;;;;6.95;6.35;;;;;;;42.70;21.99;99852.50;6113024;23;20022;-76
2022/07/05 06:19:39;;;;;;;8.10;6.90;;;;;;;43.93;20.64;99850.94;6111818;23;20025;-77
2022/07/05 06:22:05;;;;;;;7.70;6.63;;;;;;;44.91;19.51;99839.66;6115435;23;20022;-76
2022/07/05 06:24:31;;;;;;;6.20;5.70;;;;;;;45.64;18.47;99852.16;6099837;23;20084;-78
2022/07/05 06:26:57;;;;;;;7.10;6.40;;;;;;;46.26;18.17;99858.81;6098436;23;20100;-75
2022/07/05 06:29:28;;;;;;;7.97;6.43;;;;;;;47.02;17.33;99857.50;6097772;23;20018;-77
2022/07/05 06:31:59;;;;;;;6.97;6.38;;;;;;;47.62;16.30;99863.28;6098228;23;20412;-77
2022/07/05 06:34:26;;;;;;;7.10;6.50;;;;;;;47.75;15.78;99860.09;6097882;23;20014;-77
2022/07/05 06:36:52;;;;;;;7.07;6.47;;;;;;;48.05;15.22;99860.66;6074614;23;20685;-77
2022/07/05 06:39:18;;;;;;;7.38;6.78;;;;;;;48.05;15.18;99857.91;6113440;23;20528;-77
2022/07/05 06:41:44;;;;;;;6.80;6.20;;;;;;;47.74;14.49;99863.13;6127365;23;20108;-77
2022/07/05 06:44:10;;;;;;;8.02;5.63;;;;;;;47.63;14.82;99851.16;6126913;23;20048;-76
2022/07/05 06:46:36;;;;;;;9.55;7.03;;;;;;;48.51;14.17;99846.47;6153287;23;20032;-77
2022/07/05 06:49:05;;;;;;;6.15;5.68;;;;;;;48.99;13.61;99841.81;6151265;23;20130;-78
2022/07/05 06:51:31;;;;;;;7.85;5.80;;;;;;;49.47;13.47;99846.44;6126950;23;20025;-78
2022/07/05 06:53:57;;;;;;;9.23;6.28;;;;;;;49.70;12.94;99853.41;6127938;23;20485;-76
2022/07/05 06:56:23;;;;;;;8.75;5.80;;;;;;;49.77;12.53;99838.50;6153397;23;20018;-76
2022/07/05 06:58:49;;;;;;;11.07;6.40;;;;;;;50.14;12.40;99845.75;6152953;23;20017;-77
2022/07/05 07:01:15;;;;;;;7.50;6.15;;;;;;;50.60;11.98;99844.88;6127782;23;20509;-76
2022/07/05 07:03:41;;;;;;;7.30;5.40;;;;;;;50.49;11.62;99836.56;6135211;23;20351;-76
2022/07/05 07:06:08;;;;;;;7.55;6.75;;;;;;;49.77;12.03;99838.50;6155100;23;20453;-76
2022/07/05 07:11:21;;;;;;;6.45;5.85;;;;;;;49.70;12.07;99839.56;6102776;23;20022;-77
2022/07/05 07:13:50;;;;;;;12.27;6.45;;;;;;;49.24;12.22;99831.16;6126604;23;20014;-76
2022/07/05 07:16:16;;;;;;;7.47;5.65;;;;;;;50.11;11.62;99837.97;6126578;23;20038;-77
2022/07/05 07:18:43;;;;;;;6.60;6.00;;;;;;;49.48;11.40;99827.94;6127438;23;20113;-77
2022/07/05 07:21:09;;;;;;;8.30;6.18;;;;;;;49.08;12.47;99828.34;6153335;23;20394;-76
2022/07/05 07:23:36;;;;;;;7.20;6.55;;;;;;;49.82;11.69;99833.81;6103664;23;20024;-76
2022/07/05 07:26:02;;;;;;;6.70;5.97;;;;;;;50.34;11.13;99833.81;6126661;23;20359;-77
2022/07/05 07:28:29;;;;;;;6.85;6.30;;;;;;;49.55;11.47;99836.78;6102119;23;20266;-77
2022/07/05 07:30:56;;;;;;;6.32;5.75;;;;;;;48.66;12.25;99829.19;6153630;23;20018;-79
2022/07/05 07:33:22;;;;;;;6.55;5.80;;;;;;;47.56;12.43;99832.03;6127142;23;20013;-78
2022/07/05 07:35:54;;;;;;;6.82;6.32;;;;;;;48.22;12.13;99820.00;6102925;23;20045;-78
2022/07/05 07:38:20;;;;;;;6.53;5.93;;;;;;;47.85;12.30;99829.06;6124002;23;20021;-78
2022/07/05 07:40:46;;;;;;;7.22;6.60;;;;;;;47.28;12.59;99822.94;6111809;23;20082;-78
2022/07/05 07:43:12;;;;;;;9.00;6.55;;;;;;;47.87;12.45;99821.34;6097263;23;20046;-77
2022/07/05 07:45:38;;;;;;;7.30;6.60;;;;;;;48.54;12.12;99813.66;6123762;23;20022;-77
2022/07/05 07:48:04;;;;;;;6.45;5.72;;;;;;;49.88;11.31;99812.53;6097530;23;20489;-75
2022/07/05 07:50:30;;;;;;;6.25;5.53;;;;;;;51.10;11.13;99814.53;6123035;23;20407;-78
2022/07/05 07:52:57;;;;;;;6.53;6.03;;;;;;;51.42;10.05;99818.84;6098028;23;20018;-79
2022/07/05 07:55:23;;;;;;;10.15;6.40;;;;;;;51.46;10.49;99822.69;6098490;23;20056;-78
2022/07/05 07:57:49;;;;;;;8.25;6.57;;;;;;;51.00;10.58;99811.84;6100522;23;20456;-79
2022/07/05 08:00:15;;;;;;;6.85;6.35;;;;;;;51.00;10.79;99817.38;6051761;23;20538;-77
2022/07/05 08:02:44;;;;;;;7.43;6.70;;;;;;;51.23;10.98;99810.34;6099720;23;20018;-79
2022/07/05 08:05:10;;;;;;;;;;;;;;;50.57;10.74;99812.22;6099358;23;20101;-76
2022/07/05 08:07:36;;;;;;;12.57;6.90;;;;;;;50.04;11.09;99811.41;6100634;23;19939;-77
2022/07/05 08:10:06;;;;;;;7.15;6.45;;;;;;;51.46;10.60;99821.84;6100366;23;20026;-77
2022/07/05 08:12:35;;;;;;;7.78;7.28;;;;;;;52.18;10.02;99815.78;6099664;23;20105;-77
2022/07/05 08:15:01;;;;;;;;;;;;;;;52.82;9.52;99815.69;6100774;23;20017;-78
2022/07/05 08:17:28;;;;;;;7.57;6.88;;;;;;;52.57;9.28;99812.06;6103067;23;19935;-78
2022/07/05 08:22:40;;;;;;;9.90;6.00;;;;;;;52.64;9.84;99816.47;6092340;23;20013;-79
2022/07/05 08:25:09;;;;;;;9.45;7.25;;;;;;;53.06;9.42;99819.63;6146153;23;20045;-77
2022/07/05 08:27:38;;;;;;;8.05;6.70;;;;;;;53.08;9.12;99815.41;6130295;23;20021;-78
2022/07/05 08:30:08;;;;;;;7.40;6.70;;;;;;;53.07;8.94;99802.63;6105712;23;20028;-77
2022/07/05 08:32:35;;;;;;;6.70;6.07;;;;;;;53.71;8.68;99816.19;6129008;23;20021;-77
2022/07/05 08:35:01;;;;;;;7.97;7.30;;;;;;;53.84;8.60;99803.47;6129352;23;20013;-77
2022/07/05 08:37:31;;;;;;;7.20;6.60;;;;;;;54.38;8.62;99803.13;6100948;23;20028;-79
2022/07/05 08:40:03;;;;;;;7.60;7.00;;;;;;;54.18;8.64;99796.75;6116452;23;20375;-80
2022/07/05 08:42:32;;;;;;;7.75;7.05;;;;;;;54.70;8.35;99806.94;6123549;23;20528;-78
2022/07/05 08:44:59;;;;;;;7.68;7.07;;;;;;;53.75;8.58;99795.00;6124038;23;20028;-77
2022/07/05 08:47:30;;;;;;;8.10;7.30;;;;;;;52.03;9.25;99766.03;6124091;23;20021;-80
2022/07/05 08:49:57;;;;;;;7.90;7.20;;;;;;;52.15;9.16;99796.16;6126977;23;20097;-79
2022/07/05 08:52:24;;;;;;;7.72;6.93;;;;;;;52.05;9.01;99770.16;6128888;23;20022;-78
2022/07/05 08:54:51;;;;;;;7.63;7.03;;;;;;;52.69;9.32;99795.03;6100093;23;20014;-79
2022/07/05 08:57:17;;;;;;;7.97;7.32;;;;;;;52.53;9.06;99793.53;6125076;23;20018;-77
2022/07/05 08:59:55;;;;;;;7.75;7.13;;;;;;;51.99;8.94;99774.09;6124830;23;20028;-79
2022/07/05 09:02:22;;;;;;;10.32;7.68;;;;;;;52.44;9.21;99779.50;6123080;23;20669;-77
2022/07/05 09:04:56;;;;;;;7.43;6.78;;;;;;;53.44;8.32;99770.44;6100243;23;20244;-78
2022/07/05 09:07:29;;;;;;;6.60;6.20;;;;;;;54.39;7.87;99785.28;6124728;23;20014;-76
2022/07/05 09:10:09;;;;;;;;;;;;;;;;;;;;;
2022/07/05 09:12:48;;;;;;;8.38;6.78;;;;;;;54.66;8.30;99780.03;6124622;23;20021;-78
2022/07/05 09:15:14;;;;;;;7.95;6.85;;;;;;;54.90;7.80;99785.34;6126486;23;20018;-77
2022/07/05 09:17:45;;;;;;;7.30;6.68;;;;;;;55.34;7.10;99777.47;6099690;23;20072;-76
2022/07/05 09:20:14;;;;;;;8.25;7.50;;;;;;;55.54;7.46;99785.31;6123393;23;20020;-78
2022/07/05 09:23:01;;;;;;;8.05;6.97;;;;;;;55.55;7.37;99783.34;6123306;23;20018;-78
2022/07/05 09:25:30;;;;;;;7.28;6.68;;;;;;;55.58;7.39;99779.97;6147987;23;20459;-78
2022/07/05 09:28:04;;;;;;;8.07;7.47;;;;;;;55.05;7.27;99770.31;6124509;23;20048;-77
2022/07/05 09:30:37;;;;;;;8.07;7.25;;;;;;;54.68;7.53;99764.66;6098557;23;20017;-76
2022/07/05 09:33:11;;;;;;;7.80;7.20;;;;;;;54.12;7.79;99769.34;6123421;23;20021;-79
2022/07/05 09:35:57;;;;;;;7.63;7.05;;;;;;;53.57;8.28;99765.25;6127949;23;20333;-77
2022/07/05 09:38:24;;;;;;;7.70;6.97;;;;;;;53.77;7.90;99772.44;6123111;23;20482;-77
2022/07/05 09:40:51;;;;;;;7.78;6.95;;;;;;;53.36;7.83;99779.47;6125817;23;20018;-78
2022/07/05 09:43:23;;;;;;;7.15;6.50;;;;;;;53.18;8.27;99770.00;6076256;23;20024;-78
2022/07/05 09:46:00;;;;;;;9.23;7.63;;;;;;;53.27;7.64;99757.13;6081046;23;20022;-75
2022/07/05 09:48:51;;;;;;;8.27;7.47;;;;;;;53.64;7.97;99764.91;6145565;23;20032;-78
2022/07/05 09:51:16;;;;;;;7.90;7.38;;;;;;;54.05;7.78;99747.50;6140176;23;20025;-78
2022/07/05 09:53:59;;;;;;;8.43;7.70;;;;;;;54.09;7.69;99762.47;6118280;23;20026;-77
2022/07/05 09:56:29;;;;;;;8.73;8.02;;;;;;;52.22;8.27;99757.78;6127066;23;20018;-78
2022/07/05 09:59:15;;;;;;;7.88;7.25;;;;;;;50.49;9.18;99747.19;6124498;23;20053;-78
2022/07/05 10:01:44;;;;;;;7.50;6.95;;;;;;;50.59;9.50;99744.44;6079020;23;20013;-77
2022/07/05 10:04:18;;;;;;;8.10;7.50;;;;;;;51.15;8.75;99744.47;6124637;23;20021;-76
2022/07/05 10:06:48;;;;;;;8.00;7.30;;;;;;;51.07;9.07;99737.59;6080294;23;20021;-77
2022/07/05 10:09:15;;;;;;;8.35;7.47;;;;;;;50.96;8.93;99733.22;6103223;23;20036;-77
2022/07/05 10:11:43;;;;;;;8.00;7.50;;;;;;;50.27;9.93;99734.53;6126115;23;20018;-79
2022/07/05 10:14:18;;;;;;;7.53;6.88;;;;;;;49.47;10.19;99730.41;6126659;23;20026;-77
2022/07/05 10:16:53;;;;;;;8.38;7.68;;;;;;;48.91;10.91;99731.06;6125844;23;20401;-77
2022/07/05 10:19:49;;;;;;;7.75;7.13;;;;;;;49.48;10.21;99715.50;6082996;23;20021;-77
2022/07/05 10:22:22;;;;;;;7.38;6.68;;;;;;;49.00;10.75;99704.59;6101170;23;20048;-79
2022/07/05 10:25:05;;;;;;;7.90;7.40;;;;;;;49.41;10.34;99707.44;6098108;23;20073;-77
2022/07/05 10:27:42;;;;;;;7.10;6.45;;;;;;;49.77;10.38;99714.13;6099935;23;20045;-79
2022/07/05 10:30:10;;;;;;;7.78;7.18;;;;;;;49.14;10.51;99707.69;6123686;23;20017;-78
2022/07/05 10:32:38;;;;;;;7.50;6.80;;;;;;;47.35;11.26;99679.53;6098699;23;20089;-77
2022/07/05 10:35:29;;;;;;;7.72;6.97;;;;;;;45.94;12.47;99697.22;6075440;23;20021;-78
2022/07/05 10:38:01;;;;;;;8.88;7.13;;;;;;;44.18;13.67;99696.50;6076087;23;20109;-76
2022/07/05 10:40:47;;;;;;;8.05;6.97;;;;;;;43.28;14.58;99680.81;6099565;23;20029;-77
2022/07/05 10:43:17;;;;;;;8.93;7.18;;;;;;;42.23;15.07;99678.03;6078701;23;20016;-78
2022/07/05 10:45:50;;;;;;;8.90;7.43;;;;;;;40.53;16.76;99682.94;6101027;23;20017;-76
2022/07/05 10:48:29;;;;;;;8.83;7.97;;;;;;;39.55;17.83;99686.09;6125630;23;20486;-77
2022/07/05 10:51:00;;;;;;;8.48;7.50;;;;;;;39.33;18.24;99690.00;6105359;23;20328;-78
2022/07/05 10:53:31;;;;;;;8.23;7.50;;;;;;;38.75;18.67;99680.31;6130990;23;20030;-76
2022/07/05 10:56:07;;;;;;;8.38;7.63;;;;;;;38.50;18.84;99678.94;6108157;23;20029;-76
2022/07/05 10:58:41;;;;;;;8.07;7.45;;;;;;;38.56;19.08;99680.00;6131810;23;20472;-78
2022/07/05 11:01:22;;;;;;;8.35;7.65;;;;;;;38.17;19.25;99698.56;6106672;23;20021;-77
2022/07/05 11:04:04;;;;;;;9.18;7.72;;;;;;;37.38;20.25;99689.41;6082552;23;20014;-76
2022/07/05 11:06:46;;;;;;;8.70;7.68;;;;;;;37.16;20.42;99681.25;6103764;23;20029;-77
2022/07/05 11:09:58;;;;;;;9.10;8.20;;;;;;;36.45;20.75;99695.25;6086403;23;20018;-77
2022/07/05 11:12:39;;;;;;;9.77;8.13;;;;;;;35.58;21.77;99668.41;6080086;23;20049;-76
2022/07/05 11:15:08;;;;;;;7.50;6.90;;;;;;;35.70;22.16;99689.63;6091031;23;20130;-77
2022/07/05 11:17:36;;;;;;;8.68;7.88;;;;;;;35.69;21.86;99691.47;6108465;23;20451;-77
2022/07/05 11:20:23;;;;;;;9.38;7.97;;;;;;;35.26;22.89;99691.91;6078196;23;20018;-75
2022/07/05 11:23:11;;;;;;;9.00;8.20;;;;;;;34.82;23.62;99687.84;6125941;23;20021;-77
2022/07/05 11:25:49;;;;;;;8.30;7.50;;;;;;;34.64;24.09;99681.84;6100749;23;20018;-76
2022/07/05 11:28:23;;;;;;;8.68;7.85;;;;;;;34.60;24.03;99670.56;6098875;23;20017;-77
2022/07/05 11:30:59;;;;;;;10.50;8.13;;;;;;;34.88;24.13;99683.59;6098551;23;20514;-77
2022/07/05 11:33:29;;;;;;;8.38;7.57;;;;;;;34.82;24.42;99678.91;6126253;23;20124;-77
2022/07/05 11:35:57;;;;;;;8.82;8.00;;;;;;;34.93;24.52;99683.91;6101035;23;20076;-77
2022/07/05 11:38:31;;;;;;;8.05;7.35;;;;;;;34.93;24.33;99685.78;6101273;23;20079;-75
2022/07/05 11:41:29;;;;;;;7.97;7.28;;;;;;;34.90;24.47;99702.34;6078005;23;20448;-76
2022/07/05 11:44:03;;;;;;;8.48;7.68;;;;;;;34.87;24.17;99708.94;6127985;23;20018;-79